sensor_id;sensor_type;location;lat;lon;timestamp;temperature;humidity
530;DHT22;251;48.704;9.210;2024-01-11T00:02:12;-6.80;75.20
530;DHT22;251;48.704;9.210;2024-01-11T00:04:41;-6.80;75.00
530;DHT22;251;48.704;9.210;2024-01-11T00:07:09;-6.80;74.20
530;DHT22;251;48.704;9.210;2024-01-11T00:09:38;-6.80;74.30
530;DHT22;251;48.704;9.210;2024-01-11T00:12:06;-6.80;75.20
530;DHT22;251;48.704;9.210;2024-01-11T00:14:32;-6.80;75.30
530;DHT22;251;48.704;9.210;2024-01-11T00:17:00;-6.90;74.30
530;DHT22;251;48.704;9.210;2024-01-11T00:19:27;-6.90;74.00
530;DHT22;251;48.704;9.210;2024-01-11T00:21:55;-6.90;74.70
530;DHT22;251;48.704;9.210;2024-01-11T00:24:21;-6.90;74.30
530;DHT22;251;48.704;9.210;2024-01-11T00:26:49;-6.90;73.60
530;DHT22;251;48.704;9.210;2024-01-11T00:29:15;-7.00;72.80
530;DHT22;251;48.704;9.210;2024-01-11T00:31:42;-7.00;73.50
530;DHT22;251;48.704;9.210;2024-01-11T00:34:09;-6.90;73.80
530;DHT22;251;48.704;9.210;2024-01-11T00:36:36;-6.90;73.90
530;DHT22;251;48.704;9.210;2024-01-11T00:39:04;-6.90;73.10
530;DHT22;251;48.704;9.210;2024-01-11T00:41:31;-7.00;72.40
530;DHT22;251;48.704;9.210;2024-01-11T00:43:59;-7.00;72.90
530;DHT22;251;48.704;9.210;2024-01-11T00:46:25;-7.00;73.00
530;DHT22;251;48.704;9.210;2024-01-11T00:48:52;-7.00;73.60
530;DHT22;251;48.704;9.210;2024-01-11T00:51:19;-7.00;72.80
530;DHT22;251;48.704;9.210;2024-01-11T00:53:46;-7.00;71.40
530;DHT22;251;48.704;9.210;2024-01-11T00:56:17;-7.00;71.70
530;DHT22;251;48.704;9.210;2024-01-11T00:58:44;-7.00;71.70
530;DHT22;251;48.704;9.210;2024-01-11T01:01:11;-7.10;71.30
530;DHT22;251;48.704;9.210;2024-01-11T01:03:38;-7.10;73.40
530;DHT22;251;48.704;9.210;2024-01-11T01:06:05;-7.10;73.20
530;DHT22;251;48.704;9.210;2024-01-11T01:08:32;-7.10;71.80
530;DHT22;251;48.704;9.210;2024-01-11T01:10:59;-7.10;72.10
530;DHT22;251;48.704;9.210;2024-01-11T01:13:27;-7.10;73.00
530;DHT22;251;48.704;9.210;2024-01-11T01:15:54;-7.10;70.90
530;DHT22;251;48.704;9.210;2024-01-11T01:18:21;-7.10;71.70
530;DHT22;251;48.704;9.210;2024-01-11T01:20:48;-7.10;73.00
530;DHT22;251;48.704;9.210;2024-01-11T01:23:14;-7.10;72.30
530;DHT22;251;48.704;9.210;2024-01-11T01:25:42;-7.10;71.70
530;DHT22;251;48.704;9.210;2024-01-11T01:28:08;-7.10;71.50
530;DHT22;251;48.704;9.210;2024-01-11T01:30:36;-7.20;71.90
530;DHT22;251;48.704;9.210;2024-01-11T01:33:04;-7.10;71.50
530;DHT22;251;48.704;9.210;2024-01-11T01:35:30;-7.20;71.80
530;DHT22;251;48.704;9.210;2024-01-11T01:37:57;-7.20;70.60
530;DHT22;251;48.704;9.210;2024-01-11T01:40:24;-7.20;70.80
530;DHT22;251;48.704;9.210;2024-01-11T01:42:58;-7.20;71.10
530;DHT22;251;48.704;9.210;2024-01-11T01:45:25;-7.20;71.30
530;DHT22;251;48.704;9.210;2024-01-11T01:47:54;-7.20;71.10
530;DHT22;251;48.704;9.210;2024-01-11T01:50:21;-7.20;70.60
530;DHT22;251;48.704;9.210;2024-01-11T01:52:48;-7.20;71.50
530;DHT22;251;48.704;9.210;2024-01-11T01:55:17;-7.20;71.20
530;DHT22;251;48.704;9.210;2024-01-11T01:57:46;-7.20;70.60
530;DHT22;251;48.704;9.210;2024-01-11T02:00:14;-7.20;70.60
530;DHT22;251;48.704;9.210;2024-01-11T02:02:43;-7.20;70.60
530;DHT22;251;48.704;9.210;2024-01-11T02:05:13;-7.20;69.60
530;DHT22;251;48.704;9.210;2024-01-11T02:07:40;-7.20;69.40
530;DHT22;251;48.704;9.210;2024-01-11T02:10:07;-7.20;69.40
530;DHT22;251;48.704;9.210;2024-01-11T02:12:35;-7.20;69.30
530;DHT22;251;48.704;9.210;2024-01-11T02:15:03;-7.20;70.10
530;DHT22;251;48.704;9.210;2024-01-11T02:17:31;-7.20;69.40
530;DHT22;251;48.704;9.210;2024-01-11T02:19:58;-7.20;70.70
530;DHT22;251;48.704;9.210;2024-01-11T02:22:29;-7.20;71.10
530;DHT22;251;48.704;9.210;2024-01-11T02:24:59;-7.30;70.30
530;DHT22;251;48.704;9.210;2024-01-11T02:27:26;-7.30;70.60
530;DHT22;251;48.704;9.210;2024-01-11T02:29:53;-7.30;71.10
530;DHT22;251;48.704;9.210;2024-01-11T02:32:20;-7.30;71.60
530;DHT22;251;48.704;9.210;2024-01-11T02:34:47;-7.30;70.60
530;DHT22;251;48.704;9.210;2024-01-11T02:37:14;-7.30;69.70
530;DHT22;251;48.704;9.210;2024-01-11T02:39:41;-7.30;69.80
530;DHT22;251;48.704;9.210;2024-01-11T02:42:09;-7.30;70.10
530;DHT22;251;48.704;9.210;2024-01-11T02:44:36;-7.30;69.90
530;DHT22;251;48.704;9.210;2024-01-11T02:47:03;-7.30;69.20
530;DHT22;251;48.704;9.210;2024-01-11T02:49:30;-7.40;69.50
530;DHT22;251;48.704;9.210;2024-01-11T02:51:57;-7.30;69.30
530;DHT22;251;48.704;9.210;2024-01-11T02:54:24;-7.30;69.00
530;DHT22;251;48.704;9.210;2024-01-11T02:56:50;-7.40;68.40
530;DHT22;251;48.704;9.210;2024-01-11T02:59:19;-7.40;69.10
530;DHT22;251;48.704;9.210;2024-01-11T03:01:45;-7.40;70.00
530;DHT22;251;48.704;9.210;2024-01-11T03:04:12;-7.40;70.60
530;DHT22;251;48.704;9.210;2024-01-11T03:06:39;-7.40;69.60
530;DHT22;251;48.704;9.210;2024-01-11T03:09:06;-7.40;69.00
530;DHT22;251;48.704;9.210;2024-01-11T03:11:33;-7.50;69.30
530;DHT22;251;48.704;9.210;2024-01-11T03:14:00;-7.50;69.00
530;DHT22;251;48.704;9.210;2024-01-11T03:16:29;-7.50;68.60
530;DHT22;251;48.704;9.210;2024-01-11T03:18:56;-7.50;69.70
530;DHT22;251;48.704;9.210;2024-01-11T03:21:23;-7.50;69.00
530;DHT22;251;48.704;9.210;2024-01-11T03:23:50;-7.50;69.10
530;DHT22;251;48.704;9.210;2024-01-11T03:26:17;-7.50;69.50
530;DHT22;251;48.704;9.210;2024-01-11T03:28:44;-7.50;69.60
530;DHT22;251;48.704;9.210;2024-01-11T03:31:11;-7.50;69.30
530;DHT22;251;48.704;9.210;2024-01-11T03:33:39;-7.50;68.80
530;DHT22;251;48.704;9.210;2024-01-11T03:36:07;-7.50;68.50
530;DHT22;251;48.704;9.210;2024-01-11T03:38:35;-7.50;69.40
530;DHT22;251;48.704;9.210;2024-01-11T03:41:01;-7.50;70.40
530;DHT22;251;48.704;9.210;2024-01-11T03:43:28;-7.50;69.80
530;DHT22;251;48.704;9.210;2024-01-11T03:45:55;-7.60;68.50
530;DHT22;251;48.704;9.210;2024-01-11T03:48:22;-7.60;68.70
530;DHT22;251;48.704;9.210;2024-01-11T03:50:50;-7.60;69.40
530;DHT22;251;48.704;9.210;2024-01-11T03:53:17;-7.60;69.80
530;DHT22;251;48.704;9.210;2024-01-11T03:55:43;-7.60;67.80
530;DHT22;251;48.704;9.210;2024-01-11T03:58:10;-7.50;68.50
530;DHT22;251;48.704;9.210;2024-01-11T04:00:37;-7.60;68.10
530;DHT22;251;48.704;9.210;2024-01-11T04:03:06;-7.60;68.00
530;DHT22;251;48.704;9.210;2024-01-11T04:05:33;-7.70;68.10
530;DHT22;251;48.704;9.210;2024-01-11T04:08:03;-7.70;67.90
530;DHT22;251;48.704;9.210;2024-01-11T04:10:30;-7.70;67.90
530;DHT22;251;48.704;9.210;2024-01-11T04:12:57;-7.70;68.60
530;DHT22;251;48.704;9.210;2024-01-11T04:15:24;-7.70;67.70
530;DHT22;251;48.704;9.210;2024-01-11T04:17:51;-7.70;67.60
530;DHT22;251;48.704;9.210;2024-01-11T04:20:18;-7.70;67.80
530;DHT22;251;48.704;9.210;2024-01-11T04:22:44;-7.70;68.00
530;DHT22;251;48.704;9.210;2024-01-11T04:25:13;-7.70;67.70
530;DHT22;251;48.704;9.210;2024-01-11T04:27:40;-7.70;67.70
530;DHT22;251;48.704;9.210;2024-01-11T04:30:07;-7.70;67.80
530;DHT22;251;48.704;9.210;2024-01-11T04:32:34;-7.80;67.00
530;DHT22;251;48.704;9.210;2024-01-11T04:35:01;-7.80;66.10
530;DHT22;251;48.704;9.210;2024-01-11T04:37:27;-7.80;65.80
530;DHT22;251;48.704;9.210;2024-01-11T04:39:54;-7.80;66.40
530;DHT22;251;48.704;9.210;2024-01-11T04:42:26;-7.80;66.60
530;DHT22;251;48.704;9.210;2024-01-11T04:44:53;-7.80;68.10
530;DHT22;251;48.704;9.210;2024-01-11T04:47:20;-7.80;66.40
530;DHT22;251;48.704;9.210;2024-01-11T04:49:47;-7.80;66.80
530;DHT22;251;48.704;9.210;2024-01-11T04:52:13;-7.80;65.60
530;DHT22;251;48.704;9.210;2024-01-11T04:54:41;-7.90;66.70
530;DHT22;251;48.704;9.210;2024-01-11T04:57:07;-7.80;67.50
530;DHT22;251;48.704;9.210;2024-01-11T04:59:35;-7.80;67.20
530;DHT22;251;48.704;9.210;2024-01-11T05:02:02;-7.90;65.80
530;DHT22;251;48.704;9.210;2024-01-11T05:04:29;-7.90;66.00
530;DHT22;251;48.704;9.210;2024-01-11T05:06:56;-7.90;66.10
530;DHT22;251;48.704;9.210;2024-01-11T05:09:23;-7.90;66.90
530;DHT22;251;48.704;9.210;2024-01-11T05:11:49;-7.90;66.70
530;DHT22;251;48.704;9.210;2024-01-11T05:14:16;-7.90;66.60
530;DHT22;251;48.704;9.210;2024-01-11T05:16:44;-7.90;66.30
530;DHT22;251;48.704;9.210;2024-01-11T05:19:11;-7.90;67.40
530;DHT22;251;48.704;9.210;2024-01-11T05:21:38;-7.90;68.10
530;DHT22;251;48.704;9.210;2024-01-11T05:24:05;-7.90;67.70
530;DHT22;251;48.704;9.210;2024-01-11T05:26:32;-7.90;66.90
530;DHT22;251;48.704;9.210;2024-01-11T05:28:59;-7.90;66.80
530;DHT22;251;48.704;9.210;2024-01-11T05:31:25;-7.90;67.90
530;DHT22;251;48.704;9.210;2024-01-11T05:33:54;-7.90;68.60
530;DHT22;251;48.704;9.210;2024-01-11T05:36:20;-7.90;67.70
530;DHT22;251;48.704;9.210;2024-01-11T05:38:48;-7.90;67.80
530;DHT22;251;48.704;9.210;2024-01-11T05:41:15;-7.90;66.40
530;DHT22;251;48.704;9.210;2024-01-11T05:43:42;-7.90;67.90
530;DHT22;251;48.704;9.210;2024-01-11T05:46:09;-7.90;67.90
530;DHT22;251;48.704;9.210;2024-01-11T05:48:36;-8.00;66.70
530;DHT22;251;48.704;9.210;2024-01-11T05:51:05;-8.00;66.30
530;DHT22;251;48.704;9.210;2024-01-11T05:53:31;-8.00;66.60
530;DHT22;251;48.704;9.210;2024-01-11T05:56:00;-8.00;66.90
530;DHT22;251;48.704;9.210;2024-01-11T05:58:28;-8.00;67.10
530;DHT22;251;48.704;9.210;2024-01-11T06:00:55;-8.00;67.30
530;DHT22;251;48.704;9.210;2024-01-11T06:03:22;-8.00;66.50
530;DHT22;251;48.704;9.210;2024-01-11T06:05:49;-8.00;67.90
530;DHT22;251;48.704;9.210;2024-01-11T06:08:17;-8.00;66.90
530;DHT22;251;48.704;9.210;2024-01-11T06:10:44;-8.00;67.30
530;DHT22;251;48.704;9.210;2024-01-11T06:13:11;-8.00;67.50
530;DHT22;251;48.704;9.210;2024-01-11T06:15:37;-8.00;67.80
530;DHT22;251;48.704;9.210;2024-01-11T06:18:04;-8.00;68.00
530;DHT22;251;48.704;9.210;2024-01-11T06:20:31;-8.10;67.30
530;DHT22;251;48.704;9.210;2024-01-11T06:22:58;-8.00;67.50
530;DHT22;251;48.704;9.210;2024-01-11T06:25:26;-8.10;67.60
530;DHT22;251;48.704;9.210;2024-01-11T06:27:53;-8.10;67.90
530;DHT22;251;48.704;9.210;2024-01-11T06:30:20;-8.10;67.60
530;DHT22;251;48.704;9.210;2024-01-11T06:32:47;-8.10;67.10
530;DHT22;251;48.704;9.210;2024-01-11T06:35:13;-8.10;67.20
530;DHT22;251;48.704;9.210;2024-01-11T06:37:40;-8.10;66.80
530;DHT22;251;48.704;9.210;2024-01-11T06:40:07;-8.10;66.60
530;DHT22;251;48.704;9.210;2024-01-11T06:42:36;-8.10;67.20
530;DHT22;251;48.704;9.210;2024-01-11T06:45:03;-8.00;66.70
530;DHT22;251;48.704;9.210;2024-01-11T06:47:30;-8.10;66.40
530;DHT22;251;48.704;9.210;2024-01-11T06:49:57;-8.10;65.20
530;DHT22;251;48.704;9.210;2024-01-11T06:52:25;-8.10;64.70
530;DHT22;251;48.704;9.210;2024-01-11T06:54:51;-8.10;65.10
530;DHT22;251;48.704;9.210;2024-01-11T06:57:18;-8.10;65.70
530;DHT22;251;48.704;9.210;2024-01-11T06:59:46;-8.10;65.90
530;DHT22;251;48.704;9.210;2024-01-11T07:02:14;-8.10;65.10
530;DHT22;251;48.704;9.210;2024-01-11T07:04:43;-8.10;64.60
530;DHT22;251;48.704;9.210;2024-01-11T07:07:11;-8.20;64.50
530;DHT22;251;48.704;9.210;2024-01-11T07:09:38;-8.10;64.90
530;DHT22;251;48.704;9.210;2024-01-11T07:12:06;-8.20;65.40
530;DHT22;251;48.704;9.210;2024-01-11T07:14:33;-8.10;64.60
530;DHT22;251;48.704;9.210;2024-01-11T07:17:01;-8.10;64.60
530;DHT22;251;48.704;9.210;2024-01-11T07:19:28;-8.10;64.00
530;DHT22;251;48.704;9.210;2024-01-11T07:21:54;-8.10;63.80
530;DHT22;251;48.704;9.210;2024-01-11T07:24:21;-8.10;63.60
530;DHT22;251;48.704;9.210;2024-01-11T07:26:48;-8.10;64.60
530;DHT22;251;48.704;9.210;2024-01-11T07:29:15;-8.10;64.80
530;DHT22;251;48.704;9.210;2024-01-11T07:31:42;-8.10;64.30
530;DHT22;251;48.704;9.210;2024-01-11T07:34:10;-8.10;64.00
530;DHT22;251;48.704;9.210;2024-01-11T07:36:36;-8.10;62.90
530;DHT22;251;48.704;9.210;2024-01-11T07:39:03;-8.10;62.90
530;DHT22;251;48.704;9.210;2024-01-11T07:41:31;-8.00;63.20
530;DHT22;251;48.704;9.210;2024-01-11T07:43:58;-8.00;63.00
530;DHT22;251;48.704;9.210;2024-01-11T07:46:25;-8.00;63.00
530;DHT22;251;48.704;9.210;2024-01-11T07:48:52;-8.00;63.70
530;DHT22;251;48.704;9.210;2024-01-11T07:51:20;-7.90;63.60
530;DHT22;251;48.704;9.210;2024-01-11T07:53:47;-7.90;63.10
530;DHT22;251;48.704;9.210;2024-01-11T07:56:14;-7.90;63.70
530;DHT22;251;48.704;9.210;2024-01-11T07:58:41;-7.80;63.70
530;DHT22;251;48.704;9.210;2024-01-11T08:01:09;-7.80;63.50
530;DHT22;251;48.704;9.210;2024-01-11T08:03:36;-7.70;64.20
530;DHT22;251;48.704;9.210;2024-01-11T08:06:03;-7.60;64.30
530;DHT22;251;48.704;9.210;2024-01-11T08:08:34;-7.50;64.30
530;DHT22;251;48.704;9.210;2024-01-11T08:11:02;-7.50;64.10
530;DHT22;251;48.704;9.210;2024-01-11T08:13:29;-7.40;63.90
530;DHT22;251;48.704;9.210;2024-01-11T08:15:57;-7.40;63.00
530;DHT22;251;48.704;9.210;2024-01-11T08:18:24;-7.30;62.70
530;DHT22;251;48.704;9.210;2024-01-11T08:20:52;-7.20;63.30
530;DHT22;251;48.704;9.210;2024-01-11T08:23:19;-7.10;63.50
530;DHT22;251;48.704;9.210;2024-01-11T08:25:47;-7.10;63.80
530;DHT22;251;48.704;9.210;2024-01-11T08:28:14;-7.10;65.10
530;DHT22;251;48.704;9.210;2024-01-11T08:30:41;-7.00;64.30
530;DHT22;251;48.704;9.210;2024-01-11T08:33:08;-6.90;63.70
530;DHT22;251;48.704;9.210;2024-01-11T08:35:35;-6.80;65.60
530;DHT22;251;48.704;9.210;2024-01-11T08:38:02;-6.80;66.20
530;DHT22;251;48.704;9.210;2024-01-11T08:40:29;-6.70;67.80
530;DHT22;251;48.704;9.210;2024-01-11T08:42:57;-6.60;69.50
530;DHT22;251;48.704;9.210;2024-01-11T08:45:25;-6.50;70.60
530;DHT22;251;48.704;9.210;2024-01-11T08:47:51;-6.40;70.30
530;DHT22;251;48.704;9.210;2024-01-11T08:50:18;-6.30;69.90
530;DHT22;251;48.704;9.210;2024-01-11T08:52:47;-6.20;69.30
530;DHT22;251;48.704;9.210;2024-01-11T08:55:14;-6.10;69.40
530;DHT22;251;48.704;9.210;2024-01-11T08:57:40;-6.10;68.80
530;DHT22;251;48.704;9.210;2024-01-11T09:00:10;-6.00;68.30
530;DHT22;251;48.704;9.210;2024-01-11T09:02:37;-5.90;68.70
530;DHT22;251;48.704;9.210;2024-01-11T09:05:04;-5.80;69.20
530;DHT22;251;48.704;9.210;2024-01-11T09:07:32;-5.70;69.20
530;DHT22;251;48.704;9.210;2024-01-11T09:09:59;-5.70;70.00
530;DHT22;251;48.704;9.210;2024-01-11T09:12:26;-5.60;70.70
530;DHT22;251;48.704;9.210;2024-01-11T09:14:53;-5.40;70.00
530;DHT22;251;48.704;9.210;2024-01-11T09:17:21;-5.40;71.10
530;DHT22;251;48.704;9.210;2024-01-11T09:19:48;-5.30;70.10
530;DHT22;251;48.704;9.210;2024-01-11T09:22:15;-5.20;71.30
530;DHT22;251;48.704;9.210;2024-01-11T09:24:41;-5.10;71.10
530;DHT22;251;48.704;9.210;2024-01-11T09:27:08;-5.10;71.20
530;DHT22;251;48.704;9.210;2024-01-11T09:29:35;-5.00;68.40
530;DHT22;251;48.704;9.210;2024-01-11T09:32:03;-4.90;68.00
530;DHT22;251;48.704;9.210;2024-01-11T09:34:32;-4.80;66.20
530;DHT22;251;48.704;9.210;2024-01-11T09:36:59;-4.70;64.10
530;DHT22;251;48.704;9.210;2024-01-11T09:39:26;-4.60;62.20
530;DHT22;251;48.704;9.210;2024-01-11T09:41:57;-4.50;60.70
530;DHT22;251;48.704;9.210;2024-01-11T09:44:25;-4.50;57.70
530;DHT22;251;48.704;9.210;2024-01-11T09:46:53;-4.40;57.10
530;DHT22;251;48.704;9.210;2024-01-11T09:49:22;-4.30;56.40
530;DHT22;251;48.704;9.210;2024-01-11T09:51:51;-4.30;54.70
530;DHT22;251;48.704;9.210;2024-01-11T09:54:19;-4.20;52.90
530;DHT22;251;48.704;9.210;2024-01-11T09:56:48;-4.20;53.00
530;DHT22;251;48.704;9.210;2024-01-11T09:59:18;-4.10;51.60
530;DHT22;251;48.704;9.210;2024-01-11T10:01:47;-4.00;51.10
530;DHT22;251;48.704;9.210;2024-01-11T10:04:15;-4.00;50.30
530;DHT22;251;48.704;9.210;2024-01-11T10:06:43;-3.90;49.60
530;DHT22;251;48.704;9.210;2024-01-11T10:09:11;-3.90;49.80
530;DHT22;251;48.704;9.210;2024-01-11T10:11:39;-3.80;50.50
530;DHT22;251;48.704;9.210;2024-01-11T10:14:06;-3.70;49.70
530;DHT22;251;48.704;9.210;2024-01-11T10:16:33;-3.70;48.30
530;DHT22;251;48.704;9.210;2024-01-11T10:19:01;-3.60;48.20
530;DHT22;251;48.704;9.210;2024-01-11T10:21:29;-3.60;46.90
530;DHT22;251;48.704;9.210;2024-01-11T10:23:57;-3.60;46.40
530;DHT22;251;48.704;9.210;2024-01-11T10:26:26;-3.50;46.40
530;DHT22;251;48.704;9.210;2024-01-11T10:28:52;-3.50;43.60
530;DHT22;251;48.704;9.210;2024-01-11T10:31:22;-3.40;43.50
530;DHT22;251;48.704;9.210;2024-01-11T10:33:52;-3.40;43.80
530;DHT22;251;48.704;9.210;2024-01-11T10:36:19;-3.40;43.00
530;DHT22;251;48.704;9.210;2024-01-11T10:38:47;-3.30;42.50
530;DHT22;251;48.704;9.210;2024-01-11T10:41:18;-3.30;41.70
530;DHT22;251;48.704;9.210;2024-01-11T10:43:48;-3.30;40.80
530;DHT22;251;48.704;9.210;2024-01-11T10:46:15;-3.20;39.60
530;DHT22;251;48.704;9.210;2024-01-11T10:48:44;-3.20;38.40
530;DHT22;251;48.704;9.210;2024-01-11T10:51:16;-3.20;38.70
530;DHT22;251;48.704;9.210;2024-01-11T10:53:46;-3.20;38.50
530;DHT22;251;48.704;9.210;2024-01-11T10:56:15;-3.10;38.00
530;DHT22;251;48.704;9.210;2024-01-11T10:58:43;-3.10;38.90
530;DHT22;251;48.704;9.210;2024-01-11T11:01:12;-3.00;38.20
530;DHT22;251;48.704;9.210;2024-01-11T11:03:39;-3.00;38.20
530;DHT22;251;48.704;9.210;2024-01-11T11:06:09;-3.00;38.70
530;DHT22;251;48.704;9.210;2024-01-11T11:08:36;-2.80;37.50
530;DHT22;251;48.704;9.210;2024-01-11T11:11:04;-2.90;37.60
530;DHT22;251;48.704;9.210;2024-01-11T11:13:32;-2.80;36.20
530;DHT22;251;48.704;9.210;2024-01-11T11:16:00;-2.70;36.30
530;DHT22;251;48.704;9.210;2024-01-11T11:18:31;-2.60;35.50
530;DHT22;251;48.704;9.210;2024-01-11T11:21:00;-2.40;35.60
530;DHT22;251;48.704;9.210;2024-01-11T11:23:27;-2.10;34.80
530;DHT22;251;48.704;9.210;2024-01-11T11:25:54;-1.60;33.30
530;DHT22;251;48.704;9.210;2024-01-11T11:28:23;-1.10;30.30
530;DHT22;251;48.704;9.210;2024-01-11T11:30:52;-0.70;28.10
530;DHT22;251;48.704;9.210;2024-01-11T11:33:23;-0.30;25.80
530;DHT22;251;48.704;9.210;2024-01-11T11:35:54;0.10;24.30
530;DHT22;251;48.704;9.210;2024-01-11T11:38:22;0.50;23.00
530;DHT22;251;48.704;9.210;2024-01-11T11:40:51;0.80;21.50
530;DHT22;251;48.704;9.210;2024-01-11T11:43:18;1.20;20.30
530;DHT22;251;48.704;9.210;2024-01-11T11:45:47;1.40;19.70
530;DHT22;251;48.704;9.210;2024-01-11T11:48:52;1.70;18.80
530;DHT22;251;48.704;9.210;2024-01-11T11:51:22;1.90;17.70
530;DHT22;251;48.704;9.210;2024-01-11T11:53:49;2.20;17.00
530;DHT22;251;48.704;9.210;2024-01-11T11:56:17;2.40;15.80
530;DHT22;251;48.704;9.210;2024-01-11T11:58:46;2.60;15.30
530;DHT22;251;48.704;9.210;2024-01-11T12:01:14;2.90;14.00
530;DHT22;251;48.704;9.210;2024-01-11T12:03:43;2.90;13.40
530;DHT22;251;48.704;9.210;2024-01-11T12:06:15;2.90;14.00
530;DHT22;251;48.704;9.210;2024-01-11T12:08:44;3.10;14.30
530;DHT22;251;48.704;9.210;2024-01-11T12:11:13;3.30;13.40
530;DHT22;251;48.704;9.210;2024-01-11T12:13:40;3.60;12.70
530;DHT22;251;48.704;9.210;2024-01-11T12:16:10;3.80;11.70
530;DHT22;251;48.704;9.210;2024-01-11T12:18:37;4.10;11.00
530;DHT22;251;48.704;9.210;2024-01-11T12:21:04;4.30;10.80
530;DHT22;251;48.704;9.210;2024-01-11T12:23:31;4.50;11.10
530;DHT22;251;48.704;9.210;2024-01-11T12:26:01;4.70;9.90
530;DHT22;251;48.704;9.210;2024-01-11T12:28:28;4.90;9.70
530;DHT22;251;48.704;9.210;2024-01-11T12:30:55;5.00;8.90
530;DHT22;251;48.704;9.210;2024-01-11T12:33:22;5.20;9.30
530;DHT22;251;48.704;9.210;2024-01-11T12:35:49;5.40;8.60
530;DHT22;251;48.704;9.210;2024-01-11T12:38:17;5.60;7.40
530;DHT22;251;48.704;9.210;2024-01-11T12:40:46;5.80;7.00
530;DHT22;251;48.704;9.210;2024-01-11T12:43:15;5.70;7.40
530;DHT22;251;48.704;9.210;2024-01-11T12:45:43;5.40;6.90
530;DHT22;251;48.704;9.210;2024-01-11T12:48:10;4.90;7.20
530;DHT22;251;48.704;9.210;2024-01-11T12:50:39;4.20;7.80
530;DHT22;251;48.704;9.210;2024-01-11T12:53:07;3.60;8.70
530;DHT22;251;48.704;9.210;2024-01-11T12:55:34;3.40;9.90
530;DHT22;251;48.704;9.210;2024-01-11T12:58:05;3.40;10.30
530;DHT22;251;48.704;9.210;2024-01-11T13:00:34;3.50;9.70
530;DHT22;251;48.704;9.210;2024-01-11T13:03:01;3.50;9.60
530;DHT22;251;48.704;9.210;2024-01-11T13:05:28;3.30;9.60
530;DHT22;251;48.704;9.210;2024-01-11T13:07:55;2.90;10.10
530;DHT22;251;48.704;9.210;2024-01-11T13:10:22;2.50;10.50
530;DHT22;251;48.704;9.210;2024-01-11T13:12:53;2.10;11.30
530;DHT22;251;48.704;9.210;2024-01-11T13:15:20;1.70;12.10
530;DHT22;251;48.704;9.210;2024-01-11T13:17:50;1.30;12.80
530;DHT22;251;48.704;9.210;2024-01-11T13:20:17;1.10;12.70
530;DHT22;251;48.704;9.210;2024-01-11T13:22:44;0.80;13.70
530;DHT22;251;48.704;9.210;2024-01-11T13:25:11;0.60;14.30
530;DHT22;251;48.704;9.210;2024-01-11T13:27:38;0.50;14.60
530;DHT22;251;48.704;9.210;2024-01-11T13:30:06;0.30;15.60
530;DHT22;251;48.704;9.210;2024-01-11T13:32:34;0.20;15.80
530;DHT22;251;48.704;9.210;2024-01-11T13:35:02;0.00;16.30
530;DHT22;251;48.704;9.210;2024-01-11T13:37:29;-0.10;17.50
530;DHT22;251;48.704;9.210;2024-01-11T13:39:56;-0.10;16.90
530;DHT22;251;48.704;9.210;2024-01-11T13:42:23;-0.20;17.80
530;DHT22;251;48.704;9.210;2024-01-11T13:44:49;-0.30;18.00
530;DHT22;251;48.704;9.210;2024-01-11T13:47:16;-0.30;18.40
530;DHT22;251;48.704;9.210;2024-01-11T13:49:43;-0.40;18.60
530;DHT22;251;48.704;9.210;2024-01-11T13:52:12;-0.50;18.60
530;DHT22;251;48.704;9.210;2024-01-11T13:54:39;-0.50;19.00
530;DHT22;251;48.704;9.210;2024-01-11T13:57:06;-0.60;19.10
530;DHT22;251;48.704;9.210;2024-01-11T13:59:33;-0.70;18.90
530;DHT22;251;48.704;9.210;2024-01-11T14:02:00;-0.70;19.20
530;DHT22;251;48.704;9.210;2024-01-11T14:04:27;-0.70;19.10
530;DHT22;251;48.704;9.210;2024-01-11T14:06:54;-0.70;19.10
530;DHT22;251;48.704;9.210;2024-01-11T14:09:22;-0.80;19.60
530;DHT22;251;48.704;9.210;2024-01-11T14:11:49;-0.80;19.30
530;DHT22;251;48.704;9.210;2024-01-11T14:14:16;-0.80;19.30
530;DHT22;251;48.704;9.210;2024-01-11T14:16:44;-0.90;20.00
530;DHT22;251;48.704;9.210;2024-01-11T14:19:11;-0.80;20.10
530;DHT22;251;48.704;9.210;2024-01-11T14:21:38;-0.90;20.60
530;DHT22;251;48.704;9.210;2024-01-11T14:24:05;-0.90;20.60
530;DHT22;251;48.704;9.210;2024-01-11T14:26:34;-1.00;20.60
530;DHT22;251;48.704;9.210;2024-01-11T14:29:01;-1.00;20.80
530;DHT22;251;48.704;9.210;2024-01-11T14:31:28;-1.00;20.90
530;DHT22;251;48.704;9.210;2024-01-11T14:33:55;-1.00;21.00
530;DHT22;251;48.704;9.210;2024-01-11T14:36:21;-1.00;21.40
530;DHT22;251;48.704;9.210;2024-01-11T14:38:48;-1.00;21.70
530;DHT22;251;48.704;9.210;2024-01-11T14:41:15;-1.10;21.90
530;DHT22;251;48.704;9.210;2024-01-11T14:43:43;-1.10;21.90
530;DHT22;251;48.704;9.210;2024-01-11T14:46:11;-1.10;21.90
530;DHT22;251;48.704;9.210;2024-01-11T14:48:38;-1.10;22.00
530;DHT22;251;48.704;9.210;2024-01-11T14:51:06;-1.20;21.80
530;DHT22;251;48.704;9.210;2024-01-11T14:53:34;-1.20;22.00
530;DHT22;251;48.704;9.210;2024-01-11T14:56:01;-1.20;22.20
530;DHT22;251;48.704;9.210;2024-01-11T14:58:28;-1.30;22.10
530;DHT22;251;48.704;9.210;2024-01-11T15:00:56;-1.30;22.90
530;DHT22;251;48.704;9.210;2024-01-11T15:03:23;-1.30;23.00
530;DHT22;251;48.704;9.210;2024-01-11T15:05:51;-1.40;23.40
530;DHT22;251;48.704;9.210;2024-01-11T15:08:18;-1.40;23.10
530;DHT22;251;48.704;9.210;2024-01-11T15:10:45;-1.50;23.40
530;DHT22;251;48.704;9.210;2024-01-11T15:13:12;-1.60;24.00
530;DHT22;251;48.704;9.210;2024-01-11T15:15:38;-1.60;24.20
530;DHT22;251;48.704;9.210;2024-01-11T15:18:07;-1.70;24.30
530;DHT22;251;48.704;9.210;2024-01-11T15:20:34;-1.70;24.70
530;DHT22;251;48.704;9.210;2024-01-11T15:23:01;-1.80;24.70
530;DHT22;251;48.704;9.210;2024-01-11T15:25:29;-1.80;24.50
530;DHT22;251;48.704;9.210;2024-01-11T15:27:55;-1.90;25.10
530;DHT22;251;48.704;9.210;2024-01-11T15:30:22;-1.90;25.30
530;DHT22;251;48.704;9.210;2024-01-11T15:32:50;-2.00;25.60
530;DHT22;251;48.704;9.210;2024-01-11T15:35:18;-2.20;26.40
530;DHT22;251;48.704;9.210;2024-01-11T15:37:44;-2.20;27.10
530;DHT22;251;48.704;9.210;2024-01-11T15:40:11;-2.20;27.30
530;DHT22;251;48.704;9.210;2024-01-11T15:42:38;-2.30;27.70
530;DHT22;251;48.704;9.210;2024-01-11T15:45:06;-2.40;28.20
530;DHT22;251;48.704;9.210;2024-01-11T15:47:33;-2.40;28.50
530;DHT22;251;48.704;9.210;2024-01-11T15:50:00;-2.60;29.20
530;DHT22;251;48.704;9.210;2024-01-11T15:52:34;-2.60;29.80
530;DHT22;251;48.704;9.210;2024-01-11T15:55:01;-2.70;30.60
530;DHT22;251;48.704;9.210;2024-01-11T15:57:28;-2.80;31.00
530;DHT22;251;48.704;9.210;2024-01-11T15:59:55;-2.90;32.20
530;DHT22;251;48.704;9.210;2024-01-11T16:02:22;-3.00;33.20
530;DHT22;251;48.704;9.210;2024-01-11T16:04:49;-3.00;33.60
530;DHT22;251;48.704;9.210;2024-01-11T16:07:16;-3.10;34.90
530;DHT22;251;48.704;9.210;2024-01-11T16:09:44;-3.20;35.30
530;DHT22;251;48.704;9.210;2024-01-11T16:12:12;-3.30;36.60
530;DHT22;251;48.704;9.210;2024-01-11T16:14:43;-3.40;37.80
530;DHT22;251;48.704;9.210;2024-01-11T16:17:10;-3.40;39.90
530;DHT22;251;48.704;9.210;2024-01-11T16:19:37;-3.50;40.60
530;DHT22;251;48.704;9.210;2024-01-11T16:22:05;-3.50;41.80
530;DHT22;251;48.704;9.210;2024-01-11T16:24:32;-3.50;42.30
530;DHT22;251;48.704;9.210;2024-01-11T16:27:00;-3.60;43.60
530;DHT22;251;48.704;9.210;2024-01-11T16:29:27;-3.60;44.80
530;DHT22;251;48.704;9.210;2024-01-11T16:31:54;-3.60;45.60
530;DHT22;251;48.704;9.210;2024-01-11T16:34:21;-3.70;45.30
530;DHT22;251;48.704;9.210;2024-01-11T16:36:47;-3.70;44.90
530;DHT22;251;48.704;9.210;2024-01-11T16:39:14;-3.70;47.00